Pagrindinis puslapis
METAR-TAF:

METAR-TAF

Oro uostai :

Chapecó, Santa Katarina, Brazilija

platuma: 27-08-02S, ilguma: 052-39-43W, Aukštis: 654 m

Dabartinis oras

Ataskaita buvo paskelbta 26 minutes, ne 09:00 UTC
Vėjas 10 kt iš Vakarų/Pietvakarių
Temperatūra 17°C
Drėgmė 100%
Slėgis 1010 hPa
Matomumas: 8000 m
Su prošvaistėmis ne aukštis 400 ft
Mažai debesys ne aukštis 3000 ft, Liūtiniai kamuoliniai debesys.
perkūnija, lietus

METAR: SBCH 180900Z 25010KT 8000 -TSRA BKN004 FEW030CB 17/17 Q1010

Laikas: 06:26 (09:26 UTC)


TAF: trūkstamas

Orai ataskaitas ir orų prognozės (METAR, TAF).

turimą stotys yra geltonos ir raudonos taškus žemėlapyje.

Perkelti pele per norėdami pamatyti stoties vardą.

Tada spustelėkite, norėdami matyti oro stebėjimo ir prognozės.

Norėdami pakeisti žemėlapį: spustelėkite ant žalios mygtukų su juodo kryžiaus žemyn,; žalią mygtuką su brūkšneliu, jei norite nutolinti; arba žalių rodyklių gretimoms žemėlapius.


METAR-TAF: